sensor_id;sensor_type;location;lat;lon;timestamp;temperature;humidity
15554;DHT22;7878;44.632;10.942;2023-01-29T00:01:29;5.30;84.20
15554;DHT22;7878;44.632;10.942;2023-01-29T00:03:55;5.30;84.10
15554;DHT22;7878;44.632;10.942;2023-01-29T00:06:21;5.20;84.00
15554;DHT22;7878;44.632;10.942;2023-01-29T00:08:48;5.20;83.90
15554;DHT22;7878;44.632;10.942;2023-01-29T00:11:14;5.20;83.70
15554;DHT22;7878;44.632;10.942;2023-01-29T00:13:41;5.20;83.90
15554;DHT22;7878;44.632;10.942;2023-01-29T00:16:07;5.10;84.10
15554;DHT22;7878;44.632;10.942;2023-01-29T00:18:37;5.10;84.10
15554;DHT22;7878;44.632;10.942;2023-01-29T00:21:07;5.10;84.50
15554;DHT22;7878;44.632;10.942;2023-01-29T00:23:32;5.10;84.40
15554;DHT22;7878;44.632;10.942;2023-01-29T00:25:59;5.10;84.40
15554;DHT22;7878;44.632;10.942;2023-01-29T00:28:24;5.10;84.40
15554;DHT22;7878;44.632;10.942;2023-01-29T00:30:50;5.20;84.50
15554;DHT22;7878;44.632;10.942;2023-01-29T00:33:16;5.20;84.10
15554;DHT22;7878;44.632;10.942;2023-01-29T00:35:41;5.20;84.20
15554;DHT22;7878;44.632;10.942;2023-01-29T00:38:07;5.20;84.10
15554;DHT22;7878;44.632;10.942;2023-01-29T00:40:36;5.20;84.50
15554;DHT22;7878;44.632;10.942;2023-01-29T00:43:22;5.10;84.70
15554;DHT22;7878;44.632;10.942;2023-01-29T00:46:07;5.10;84.90
15554;DHT22;7878;44.632;10.942;2023-01-29T00:48:33;5.10;84.80
15554;DHT22;7878;44.632;10.942;2023-01-29T00:50:59;5.10;84.80
15554;DHT22;7878;44.632;10.942;2023-01-29T00:53:24;5.10;84.90
15554;DHT22;7878;44.632;10.942;2023-01-29T00:55:50;5.10;84.90
15554;DHT22;7878;44.632;10.942;2023-01-29T00:58:16;5.10;85.80
15554;DHT22;7878;44.632;10.942;2023-01-29T01:00:47;5.10;84.90
15554;DHT22;7878;44.632;10.942;2023-01-29T01:03:14;5.00;85.00
15554;DHT22;7878;44.632;10.942;2023-01-29T01:05:40;5.00;85.10
15554;DHT22;7878;44.632;10.942;2023-01-29T01:08:08;5.00;85.00
15554;DHT22;7878;44.632;10.942;2023-01-29T01:11:20;5.00;85.10
15554;DHT22;7878;44.632;10.942;2023-01-29T01:13:46;5.00;85.70
15554;DHT22;7878;44.632;10.942;2023-01-29T01:16:16;5.00;85.30
15554;DHT22;7878;44.632;10.942;2023-01-29T01:18:43;5.00;85.20
15554;DHT22;7878;44.632;10.942;2023-01-29T01:21:08;5.10;85.20
15554;DHT22;7878;44.632;10.942;2023-01-29T01:23:34;5.10;85.20
15554;DHT22;7878;44.632;10.942;2023-01-29T01:26:00;5.20;85.10
15554;DHT22;7878;44.632;10.942;2023-01-29T01:28:27;5.20;85.00
15554;DHT22;7878;44.632;10.942;2023-01-29T01:30:52;5.20;85.00
15554;DHT22;7878;44.632;10.942;2023-01-29T01:33:18;5.30;84.80
15554;DHT22;7878;44.632;10.942;2023-01-29T01:35:44;5.30;84.50
15554;DHT22;7878;44.632;10.942;2023-01-29T01:38:10;5.30;84.40
15554;DHT22;7878;44.632;10.942;2023-01-29T01:40:36;5.40;84.40
15554;DHT22;7878;44.632;10.942;2023-01-29T01:43:02;5.40;84.30
15554;DHT22;7878;44.632;10.942;2023-01-29T01:45:29;5.40;84.20
15554;DHT22;7878;44.632;10.942;2023-01-29T01:47:57;5.40;84.10
15554;DHT22;7878;44.632;10.942;2023-01-29T01:53:22;5.40;84.30
15554;DHT22;7878;44.632;10.942;2023-01-29T01:55:54;5.30;84.40
15554;DHT22;7878;44.632;10.942;2023-01-29T01:58:25;5.30;84.20
15554;DHT22;7878;44.632;10.942;2023-01-29T02:00:51;5.30;84.50
15554;DHT22;7878;44.632;10.942;2023-01-29T02:03:19;5.30;84.50
15554;DHT22;7878;44.632;10.942;2023-01-29T02:06:04;5.30;84.60
15554;DHT22;7878;44.632;10.942;2023-01-29T02:08:56;5.20;84.30
15554;DHT22;7878;44.632;10.942;2023-01-29T02:11:41;5.20;84.60
15554;DHT22;7878;44.632;10.942;2023-01-29T02:14:07;5.10;84.80
15554;DHT22;7878;44.632;10.942;2023-01-29T02:16:35;5.10;84.60
15554;DHT22;7878;44.632;10.942;2023-01-29T02:19:01;4.90;84.50
15554;DHT22;7878;44.632;10.942;2023-01-29T02:24:40;4.90;85.00
15554;DHT22;7878;44.632;10.942;2023-01-29T02:30:15;4.90;84.80
15554;DHT22;7878;44.632;10.942;2023-01-29T02:33:02;4.90;85.00
15554;DHT22;7878;44.632;10.942;2023-01-29T02:35:45;4.90;85.30
15554;DHT22;7878;44.632;10.942;2023-01-29T02:44:08;4.70;85.40
15554;DHT22;7878;44.632;10.942;2023-01-29T02:49:34;4.70;85.20
15554;DHT22;7878;44.632;10.942;2023-01-29T02:52:17;4.70;84.90
15554;DHT22;7878;44.632;10.942;2023-01-29T02:57:36;4.70;85.50
15554;DHT22;7878;44.632;10.942;2023-01-29T03:03:17;4.70;85.40
15554;DHT22;7878;44.632;10.942;2023-01-29T03:05:54;4.60;85.40
15554;DHT22;7878;44.632;10.942;2023-01-29T03:08:40;4.60;85.30
15554;DHT22;7878;44.632;10.942;2023-01-29T03:11:14;4.60;85.40
15554;DHT22;7878;44.632;10.942;2023-01-29T03:19:08;4.60;85.40
15554;DHT22;7878;44.632;10.942;2023-01-29T03:21:57;4.50;85.40
15554;DHT22;7878;44.632;10.942;2023-01-29T03:27:17;4.50;85.40
15554;DHT22;7878;44.632;10.942;2023-01-29T03:30:06;4.50;85.60
15554;DHT22;7878;44.632;10.942;2023-01-29T03:32:53;4.50;85.50
15554;DHT22;7878;44.632;10.942;2023-01-29T03:35:23;4.50;85.40
15554;DHT22;7878;44.632;10.942;2023-01-29T03:38:00;4.50;85.40
15554;DHT22;7878;44.632;10.942;2023-01-29T03:40:28;4.50;85.50
15554;DHT22;7878;44.632;10.942;2023-01-29T03:43:30;4.40;85.50
15554;DHT22;7878;44.632;10.942;2023-01-29T03:48:51;4.40;85.70
15554;DHT22;7878;44.632;10.942;2023-01-29T03:51:39;4.40;85.70
15554;DHT22;7878;44.632;10.942;2023-01-29T03:57:08;4.40;86.00
15554;DHT22;7878;44.632;10.942;2023-01-29T04:00:16;4.40;85.60
15554;DHT22;7878;44.632;10.942;2023-01-29T04:02:53;4.40;86.20
15554;DHT22;7878;44.632;10.942;2023-01-29T04:05:23;4.30;85.60
15554;DHT22;7878;44.632;10.942;2023-01-29T04:07:53;4.30;85.70
15554;DHT22;7878;44.632;10.942;2023-01-29T04:10:24;4.30;85.60
15554;DHT22;7878;44.632;10.942;2023-01-29T04:13:08;4.30;85.70
15554;DHT22;7878;44.632;10.942;2023-01-29T04:15:39;4.20;85.90
15554;DHT22;7878;44.632;10.942;2023-01-29T04:18:07;4.20;86.00
15554;DHT22;7878;44.632;10.942;2023-01-29T04:20:34;4.20;86.10
15554;DHT22;7878;44.632;10.942;2023-01-29T04:23:00;4.20;86.00
15554;DHT22;7878;44.632;10.942;2023-01-29T04:25:29;4.30;86.00
15554;DHT22;7878;44.632;10.942;2023-01-29T04:30:43;4.30;86.10
15554;DHT22;7878;44.632;10.942;2023-01-29T04:33:37;4.30;86.00
15554;DHT22;7878;44.632;10.942;2023-01-29T04:50:01;4.20;86.20
15554;DHT22;7878;44.632;10.942;2023-01-29T04:55:14;4.10;86.40
15554;DHT22;7878;44.632;10.942;2023-01-29T04:57:56;4.20;86.40
15554;DHT22;7878;44.632;10.942;2023-01-29T05:00:41;4.10;86.10
15554;DHT22;7878;44.632;10.942;2023-01-29T05:03:07;4.10;86.10
15554;DHT22;7878;44.632;10.942;2023-01-29T05:05:39;4.10;86.50
15554;DHT22;7878;44.632;10.942;2023-01-29T05:08:06;4.10;86.60
15554;DHT22;7878;44.632;10.942;2023-01-29T05:10:33;4.10;86.40
15554;DHT22;7878;44.632;10.942;2023-01-29T05:13:00;4.10;86.60
15554;DHT22;7878;44.632;10.942;2023-01-29T05:15:36;4.10;86.50
15554;DHT22;7878;44.632;10.942;2023-01-29T05:18:03;4.10;86.50
15554;DHT22;7878;44.632;10.942;2023-01-29T05:20:35;4.00;86.30
15554;DHT22;7878;44.632;10.942;2023-01-29T05:23:02;4.00;86.40
15554;DHT22;7878;44.632;10.942;2023-01-29T05:25:30;4.10;86.50
15554;DHT22;7878;44.632;10.942;2023-01-29T05:27:55;4.00;86.50
15554;DHT22;7878;44.632;10.942;2023-01-29T05:30:33;4.00;86.50
15554;DHT22;7878;44.632;10.942;2023-01-29T05:32:59;4.00;86.70
15554;DHT22;7878;44.632;10.942;2023-01-29T05:35:24;4.00;86.80
15554;DHT22;7878;44.632;10.942;2023-01-29T05:37:52;4.00;86.60
15554;DHT22;7878;44.632;10.942;2023-01-29T05:40:17;4.00;86.60
15554;DHT22;7878;44.632;10.942;2023-01-29T05:42:43;4.00;86.50
15554;DHT22;7878;44.632;10.942;2023-01-29T05:45:09;4.00;86.70
15554;DHT22;7878;44.632;10.942;2023-01-29T05:47:35;4.00;86.70
15554;DHT22;7878;44.632;10.942;2023-01-29T05:50:00;3.90;86.90
15554;DHT22;7878;44.632;10.942;2023-01-29T05:52:26;3.90;87.00
15554;DHT22;7878;44.632;10.942;2023-01-29T05:54:52;3.90;87.10
15554;DHT22;7878;44.632;10.942;2023-01-29T05:57:17;3.90;86.90
15554;DHT22;7878;44.632;10.942;2023-01-29T05:59:43;3.90;87.30
15554;DHT22;7878;44.632;10.942;2023-01-29T06:02:08;3.90;87.10
15554;DHT22;7878;44.632;10.942;2023-01-29T06:04:34;3.90;87.00
15554;DHT22;7878;44.632;10.942;2023-01-29T06:07:00;3.90;87.00
15554;DHT22;7878;44.632;10.942;2023-01-29T06:09:27;3.90;87.00
15554;DHT22;7878;44.632;10.942;2023-01-29T06:11:53;3.80;86.90
15554;DHT22;7878;44.632;10.942;2023-01-29T06:14:19;3.80;86.90
15554;DHT22;7878;44.632;10.942;2023-01-29T06:16:44;3.80;86.50
15554;DHT22;7878;44.632;10.942;2023-01-29T06:19:10;3.80;86.80
15554;DHT22;7878;44.632;10.942;2023-01-29T06:21:36;3.80;86.80
15554;DHT22;7878;44.632;10.942;2023-01-29T06:24:01;3.80;86.90
15554;DHT22;7878;44.632;10.942;2023-01-29T06:26:27;3.70;86.20
15554;DHT22;7878;44.632;10.942;2023-01-29T06:28:53;3.70;86.60
15554;DHT22;7878;44.632;10.942;2023-01-29T06:31:18;3.70;86.60
15554;DHT22;7878;44.632;10.942;2023-01-29T06:33:44;3.70;87.20
15554;DHT22;7878;44.632;10.942;2023-01-29T06:36:10;3.80;86.80
15554;DHT22;7878;44.632;10.942;2023-01-29T06:38:35;3.80;86.40
15554;DHT22;7878;44.632;10.942;2023-01-29T06:41:08;3.70;86.50
15554;DHT22;7878;44.632;10.942;2023-01-29T06:43:33;3.80;86.60
15554;DHT22;7878;44.632;10.942;2023-01-29T06:45:59;3.80;86.40
15554;DHT22;7878;44.632;10.942;2023-01-29T06:48:25;3.70;86.20
15554;DHT22;7878;44.632;10.942;2023-01-29T06:50:50;3.70;86.70
15554;DHT22;7878;44.632;10.942;2023-01-29T06:53:19;3.70;86.60
15554;DHT22;7878;44.632;10.942;2023-01-29T06:55:50;3.70;86.40
15554;DHT22;7878;44.632;10.942;2023-01-29T06:58:16;3.70;86.80
15554;DHT22;7878;44.632;10.942;2023-01-29T07:00:42;3.70;86.70
15554;DHT22;7878;44.632;10.942;2023-01-29T07:03:08;3.70;86.30
15554;DHT22;7878;44.632;10.942;2023-01-29T07:05:35;3.70;86.60
15554;DHT22;7878;44.632;10.942;2023-01-29T07:08:00;3.70;86.80
15554;DHT22;7878;44.632;10.942;2023-01-29T07:10:26;3.80;86.70
15554;DHT22;7878;44.632;10.942;2023-01-29T07:12:51;3.80;86.60
15554;DHT22;7878;44.632;10.942;2023-01-29T07:15:18;3.80;86.80
15554;DHT22;7878;44.632;10.942;2023-01-29T07:18:14;3.80;86.90
15554;DHT22;7878;44.632;10.942;2023-01-29T07:20:41;3.90;87.10
15554;DHT22;7878;44.632;10.942;2023-01-29T07:23:11;3.80;86.30
15554;DHT22;7878;44.632;10.942;2023-01-29T07:25:37;3.90;86.40
15554;DHT22;7878;44.632;10.942;2023-01-29T07:28:03;4.00;86.60
15554;DHT22;7878;44.632;10.942;2023-01-29T07:30:32;4.00;86.70
15554;DHT22;7878;44.632;10.942;2023-01-29T07:33:07;4.00;86.50
15554;DHT22;7878;44.632;10.942;2023-01-29T07:35:38;4.00;86.50
15554;DHT22;7878;44.632;10.942;2023-01-29T07:38:04;4.10;86.20
15554;DHT22;7878;44.632;10.942;2023-01-29T07:40:30;4.00;86.50
15554;DHT22;7878;44.632;10.942;2023-01-29T07:43:04;4.10;86.60
15554;DHT22;7878;44.632;10.942;2023-01-29T07:45:32;4.10;86.30
15554;DHT22;7878;44.632;10.942;2023-01-29T07:47:58;4.10;86.20
15554;DHT22;7878;44.632;10.942;2023-01-29T07:50:25;4.20;86.00
15554;DHT22;7878;44.632;10.942;2023-01-29T07:52:51;4.30;85.90
15554;DHT22;7878;44.632;10.942;2023-01-29T07:55:18;4.30;85.90
15554;DHT22;7878;44.632;10.942;2023-01-29T07:57:44;4.40;85.90
15554;DHT22;7878;44.632;10.942;2023-01-29T08:00:10;4.40;85.60
15554;DHT22;7878;44.632;10.942;2023-01-29T08:02:36;4.40;85.80
15554;DHT22;7878;44.632;10.942;2023-01-29T08:05:02;4.50;85.90
15554;DHT22;7878;44.632;10.942;2023-01-29T08:07:28;4.50;85.90
15554;DHT22;7878;44.632;10.942;2023-01-29T08:09:54;4.60;85.90
15554;DHT22;7878;44.632;10.942;2023-01-29T08:12:19;4.70;86.00
15554;DHT22;7878;44.632;10.942;2023-01-29T08:14:45;4.70;85.40
15554;DHT22;7878;44.632;10.942;2023-01-29T08:17:12;4.70;85.50
15554;DHT22;7878;44.632;10.942;2023-01-29T08:19:38;4.80;85.50
15554;DHT22;7878;44.632;10.942;2023-01-29T08:22:04;4.80;85.50
15554;DHT22;7878;44.632;10.942;2023-01-29T08:24:30;4.90;85.40
15554;DHT22;7878;44.632;10.942;2023-01-29T08:26:56;5.00;85.20
15554;DHT22;7878;44.632;10.942;2023-01-29T08:29:22;5.00;85.10
15554;DHT22;7878;44.632;10.942;2023-01-29T08:31:47;5.10;85.20
15554;DHT22;7878;44.632;10.942;2023-01-29T08:34:13;5.20;85.10
15554;DHT22;7878;44.632;10.942;2023-01-29T08:36:39;5.30;84.90
15554;DHT22;7878;44.632;10.942;2023-01-29T08:39:04;5.50;84.70
15554;DHT22;7878;44.632;10.942;2023-01-29T08:41:30;7.30;85.60
15554;DHT22;7878;44.632;10.942;2023-01-29T08:43:56;9.70;81.20
15554;DHT22;7878;44.632;10.942;2023-01-29T08:46:22;11.70;75.70
15554;DHT22;7878;44.632;10.942;2023-01-29T08:48:48;13.10;72.70
15554;DHT22;7878;44.632;10.942;2023-01-29T08:51:14;14.30;69.50
15554;DHT22;7878;44.632;10.942;2023-01-29T08:53:39;15.10;66.80
15554;DHT22;7878;44.632;10.942;2023-01-29T08:56:05;15.50;65.80
15554;DHT22;7878;44.632;10.942;2023-01-29T08:58:31;15.50;65.50
15554;DHT22;7878;44.632;10.942;2023-01-29T09:01:04;15.80;65.20
15554;DHT22;7878;44.632;10.942;2023-01-29T09:03:30;16.60;63.90
15554;DHT22;7878;44.632;10.942;2023-01-29T09:05:56;16.80;63.30
15554;DHT22;7878;44.632;10.942;2023-01-29T09:08:21;17.10;63.10
15554;DHT22;7878;44.632;10.942;2023-01-29T09:10:47;16.70;61.70
15554;DHT22;7878;44.632;10.942;2023-01-29T09:13:13;15.80;62.50
15554;DHT22;7878;44.632;10.942;2023-01-29T09:15:38;14.90;63.50
15554;DHT22;7878;44.632;10.942;2023-01-29T09:18:04;14.60;63.80
15554;DHT22;7878;44.632;10.942;2023-01-29T09:20:30;14.60;64.10
15554;DHT22;7878;44.632;10.942;2023-01-29T09:22:56;14.30;64.50
15554;DHT22;7878;44.632;10.942;2023-01-29T09:25:23;13.50;64.90
15554;DHT22;7878;44.632;10.942;2023-01-29T09:27:49;12.70;65.80
15554;DHT22;7878;44.632;10.942;2023-01-29T09:30:15;11.90;66.10
15554;DHT22;7878;44.632;10.942;2023-01-29T09:32:41;11.50;67.10
15554;DHT22;7878;44.632;10.942;2023-01-29T09:35:07;11.30;67.90
15554;DHT22;7878;44.632;10.942;2023-01-29T09:37:33;11.10;67.90
15554;DHT22;7878;44.632;10.942;2023-01-29T09:39:59;10.90;68.40
15554;DHT22;7878;44.632;10.942;2023-01-29T09:42:29;10.50;68.60
15554;DHT22;7878;44.632;10.942;2023-01-29T09:45:10;10.30;69.10
15554;DHT22;7878;44.632;10.942;2023-01-29T09:47:37;10.10;69.00
15554;DHT22;7878;44.632;10.942;2023-01-29T09:50:07;10.20;70.70
15554;DHT22;7878;44.632;10.942;2023-01-29T09:52:53;10.70;70.30
15554;DHT22;7878;44.632;10.942;2023-01-29T09:55:30;11.80;68.50
15554;DHT22;7878;44.632;10.942;2023-01-29T09:58:06;14.30;68.30
15554;DHT22;7878;44.632;10.942;2023-01-29T10:00:43;17.30;63.20
15554;DHT22;7878;44.632;10.942;2023-01-29T10:21:59;21.30;56.60
15554;DHT22;7878;44.632;10.942;2023-01-29T10:24:47;23.10;57.20
15554;DHT22;7878;44.632;10.942;2023-01-29T10:27:15;24.30;52.70
15554;DHT22;7878;44.632;10.942;2023-01-29T10:29:42;25.00;54.80
15554;DHT22;7878;44.632;10.942;2023-01-29T10:32:14;25.70;54.10
15554;DHT22;7878;44.632;10.942;2023-01-29T10:34:49;26.30;50.80
15554;DHT22;7878;44.632;10.942;2023-01-29T10:37:38;26.30;51.70
15554;DHT22;7878;44.632;10.942;2023-01-29T10:40:31;25.20;47.60
15554;DHT22;7878;44.632;10.942;2023-01-29T10:43:07;23.50;47.70
15554;DHT22;7878;44.632;10.942;2023-01-29T10:48:34;22.90;54.00
15554;DHT22;7878;44.632;10.942;2023-01-29T10:59:04;29.20;45.00
15554;DHT22;7878;44.632;10.942;2023-01-29T11:01:33;29.80;47.40
15554;DHT22;7878;44.632;10.942;2023-01-29T11:04:01;30.30;49.30
15554;DHT22;7878;44.632;10.942;2023-01-29T11:06:32;30.80;48.50
15554;DHT22;7878;44.632;10.942;2023-01-29T11:09:10;31.00;45.20
15554;DHT22;7878;44.632;10.942;2023-01-29T11:11:49;31.30;43.80
15554;DHT22;7878;44.632;10.942;2023-01-29T11:14:24;31.20;43.60
15554;DHT22;7878;44.632;10.942;2023-01-29T11:16:51;29.60;43.70
15554;DHT22;7878;44.632;10.942;2023-01-29T11:19:16;27.80;48.20
15554;DHT22;7878;44.632;10.942;2023-01-29T11:21:57;27.90;48.70
15554;DHT22;7878;44.632;10.942;2023-01-29T11:24:23;29.20;45.30
15554;DHT22;7878;44.632;10.942;2023-01-29T11:26:50;30.20;47.70
15554;DHT22;7878;44.632;10.942;2023-01-29T11:31:52;29.40;42.50
15554;DHT22;7878;44.632;10.942;2023-01-29T11:34:22;29.30;47.70
15554;DHT22;7878;44.632;10.942;2023-01-29T11:37:15;30.40;46.00
15554;DHT22;7878;44.632;10.942;2023-01-29T11:39:45;31.40;40.20
15554;DHT22;7878;44.632;10.942;2023-01-29T11:42:19;32.10;45.80
15554;DHT22;7878;44.632;10.942;2023-01-29T11:44:45;32.80;42.90
15554;DHT22;7878;44.632;10.942;2023-01-29T11:47:20;33.30;45.90
15554;DHT22;7878;44.632;10.942;2023-01-29T11:50:04;33.50;42.80
15554;DHT22;7878;44.632;10.942;2023-01-29T11:52:38;33.80;41.20
15554;DHT22;7878;44.632;10.942;2023-01-29T11:55:26;33.90;40.00
15554;DHT22;7878;44.632;10.942;2023-01-29T12:00:25;34.00;41.00
15554;DHT22;7878;44.632;10.942;2023-01-29T12:05:37;32.30;37.50
15554;DHT22;7878;44.632;10.942;2023-01-29T12:08:15;30.60;45.20
15554;DHT22;7878;44.632;10.942;2023-01-29T12:10:42;30.00;41.30
15554;DHT22;7878;44.632;10.942;2023-01-29T12:15:44;31.80;41.30
15554;DHT22;7878;44.632;10.942;2023-01-29T12:18:25;32.60;45.90
15554;DHT22;7878;44.632;10.942;2023-01-29T12:20:56;32.90;38.80
15554;DHT22;7878;44.632;10.942;2023-01-29T12:23:39;32.90;43.20
15554;DHT22;7878;44.632;10.942;2023-01-29T12:26:15;33.10;39.40
15554;DHT22;7878;44.632;10.942;2023-01-29T12:28:56;33.30;40.30
15554;DHT22;7878;44.632;10.942;2023-01-29T12:39:36;29.40;41.60
15554;DHT22;7878;44.632;10.942;2023-01-29T12:44:39;27.20;41.90
15554;DHT22;7878;44.632;10.942;2023-01-29T12:47:54;24.70;46.80
15554;DHT22;7878;44.632;10.942;2023-01-29T12:52:51;21.10;45.80
15554;DHT22;7878;44.632;10.942;2023-01-29T12:55:21;20.40;50.50
15554;DHT22;7878;44.632;10.942;2023-01-29T12:58:27;20.90;50.30
15554;DHT22;7878;44.632;10.942;2023-01-29T13:00:55;23.10;43.80
15554;DHT22;7878;44.632;10.942;2023-01-29T13:06:06;26.80;41.80
15554;DHT22;7878;44.632;10.942;2023-01-29T13:08:40;27.30;43.10
15554;DHT22;7878;44.632;10.942;2023-01-29T13:11:16;26.50;42.20
15554;DHT22;7878;44.632;10.942;2023-01-29T13:13:55;25.90;43.40
15554;DHT22;7878;44.632;10.942;2023-01-29T13:16:27;25.40;42.70
15554;DHT22;7878;44.632;10.942;2023-01-29T13:19:04;23.80;44.40
15554;DHT22;7878;44.632;10.942;2023-01-29T13:21:35;21.70;44.70
15554;DHT22;7878;44.632;10.942;2023-01-29T13:24:11;20.10;46.50
15554;DHT22;7878;44.632;10.942;2023-01-29T13:26:38;19.40;48.00
15554;DHT22;7878;44.632;10.942;2023-01-29T13:29:04;19.20;47.90
15554;DHT22;7878;44.632;10.942;2023-01-29T13:31:37;19.10;47.70
15554;DHT22;7878;44.632;10.942;2023-01-29T13:36:31;18.60;46.70
15554;DHT22;7878;44.632;10.942;2023-01-29T13:39:06;18.10;47.70
15554;DHT22;7878;44.632;10.942;2023-01-29T13:41:34;17.60;46.80
15554;DHT22;7878;44.632;10.942;2023-01-29T13:44:03;17.10;48.70
15554;DHT22;7878;44.632;10.942;2023-01-29T13:46:30;16.60;49.10
15554;DHT22;7878;44.632;10.942;2023-01-29T13:48:57;16.20;49.90
15554;DHT22;7878;44.632;10.942;2023-01-29T13:51:32;15.80;50.70
15554;DHT22;7878;44.632;10.942;2023-01-29T13:54:16;15.50;50.90
15554;DHT22;7878;44.632;10.942;2023-01-29T13:56:54;15.10;49.70
15554;DHT22;7878;44.632;10.942;2023-01-29T14:02:28;14.50;50.20
15554;DHT22;7878;44.632;10.942;2023-01-29T14:07:53;14.00;51.20
15554;DHT22;7878;44.632;10.942;2023-01-29T14:10:21;13.70;52.30
15554;DHT22;7878;44.632;10.942;2023-01-29T14:12:49;13.50;52.70
15554;DHT22;7878;44.632;10.942;2023-01-29T14:15:23;13.30;52.50
15554;DHT22;7878;44.632;10.942;2023-01-29T14:17:58;13.20;53.20
15554;DHT22;7878;44.632;10.942;2023-01-29T14:23:31;12.90;53.10
15554;DHT22;7878;44.632;10.942;2023-01-29T14:25:59;12.80;54.70
15554;DHT22;7878;44.632;10.942;2023-01-29T14:28:28;12.70;53.50
15554;DHT22;7878;44.632;10.942;2023-01-29T14:30:55;12.60;53.60
15554;DHT22;7878;44.632;10.942;2023-01-29T14:33:35;12.50;53.60
15554;DHT22;7878;44.632;10.942;2023-01-29T14:36:09;12.50;53.50
15554;DHT22;7878;44.632;10.942;2023-01-29T14:38:36;12.30;53.10
15554;DHT22;7878;44.632;10.942;2023-01-29T14:41:28;12.20;53.00
15554;DHT22;7878;44.632;10.942;2023-01-29T14:46:57;12.00;52.80
15554;DHT22;7878;44.632;10.942;2023-01-29T14:49:52;11.90;54.10
15554;DHT22;7878;44.632;10.942;2023-01-29T14:52:22;11.90;54.60
15554;DHT22;7878;44.632;10.942;2023-01-29T14:54:50;11.90;54.90
15554;DHT22;7878;44.632;10.942;2023-01-29T14:57:17;11.80;54.50
15554;DHT22;7878;44.632;10.942;2023-01-29T14:59:58;11.80;54.60
15554;DHT22;7878;44.632;10.942;2023-01-29T15:02:27;11.80;54.70
15554;DHT22;7878;44.632;10.942;2023-01-29T15:05:02;11.80;54.70
15554;DHT22;7878;44.632;10.942;2023-01-29T15:07:31;11.70;55.00
15554;DHT22;7878;44.632;10.942;2023-01-29T15:12:40;11.70;55.00
15554;DHT22;7878;44.632;10.942;2023-01-29T15:18:00;11.60;55.20
15554;DHT22;7878;44.632;10.942;2023-01-29T15:20:32;11.50;55.90
15554;DHT22;7878;44.632;10.942;2023-01-29T15:22:59;11.50;55.90
15554;DHT22;7878;44.632;10.942;2023-01-29T15:25:26;11.40;55.80
15554;DHT22;7878;44.632;10.942;2023-01-29T15:27:55;11.30;55.80
15554;DHT22;7878;44.632;10.942;2023-01-29T15:30:27;11.20;55.80
15554;DHT22;7878;44.632;10.942;2023-01-29T15:32:53;11.20;56.20
15554;DHT22;7878;44.632;10.942;2023-01-29T15:35:34;11.20;56.30
15554;DHT22;7878;44.632;10.942;2023-01-29T15:40:56;11.10;56.00
15554;DHT22;7878;44.632;10.942;2023-01-29T15:43:35;11.00;56.50
15554;DHT22;7878;44.632;10.942;2023-01-29T15:48:39;10.90;56.80
15554;DHT22;7878;44.632;10.942;2023-01-29T15:51:07;10.90;56.90
15554;DHT22;7878;44.632;10.942;2023-01-29T15:53:37;10.80;57.10
15554;DHT22;7878;44.632;10.942;2023-01-29T15:56:09;10.80;57.30
15554;DHT22;7878;44.632;10.942;2023-01-29T15:58:36;10.80;57.50
15554;DHT22;7878;44.632;10.942;2023-01-29T16:01:03;10.70;57.80
15554;DHT22;7878;44.632;10.942;2023-01-29T16:03:31;10.60;57.80
15554;DHT22;7878;44.632;10.942;2023-01-29T16:05:58;10.60;57.70
15554;DHT22;7878;44.632;10.942;2023-01-29T16:08:26;10.50;58.00
15554;DHT22;7878;44.632;10.942;2023-01-29T16:11:03;10.40;58.00
15554;DHT22;7878;44.632;10.942;2023-01-29T16:13:33;10.40;58.00
15554;DHT22;7878;44.632;10.942;2023-01-29T16:16:04;10.30;58.30
15554;DHT22;7878;44.632;10.942;2023-01-29T16:18:36;10.30;58.40
15554;DHT22;7878;44.632;10.942;2023-01-29T16:21:06;10.20;58.80
15554;DHT22;7878;44.632;10.942;2023-01-29T16:23:41;10.10;59.40
15554;DHT22;7878;44.632;10.942;2023-01-29T16:26:13;10.10;59.40
15554;DHT22;7878;44.632;10.942;2023-01-29T16:28:43;10.00;59.30
15554;DHT22;7878;44.632;10.942;2023-01-29T16:31:09;9.90;60.80
15554;DHT22;7878;44.632;10.942;2023-01-29T16:33:38;9.90;60.80
15554;DHT22;7878;44.632;10.942;2023-01-29T16:36:14;9.80;60.70
15554;DHT22;7878;44.632;10.942;2023-01-29T16:38:41;9.70;61.50
15554;DHT22;7878;44.632;10.942;2023-01-29T16:43:47;9.70;61.80
15554;DHT22;7878;44.632;10.942;2023-01-29T16:46:34;9.60;62.30
15554;DHT22;7878;44.632;10.942;2023-01-29T16:49:00;9.60;63.00
15554;DHT22;7878;44.632;10.942;2023-01-29T16:51:35;9.50;63.70
15554;DHT22;7878;44.632;10.942;2023-01-29T16:56:33;9.40;63.80
15554;DHT22;7878;44.632;10.942;2023-01-29T16:59:01;9.30;64.30
15554;DHT22;7878;44.632;10.942;2023-01-29T17:01:28;9.30;64.90
15554;DHT22;7878;44.632;10.942;2023-01-29T17:04:08;9.30;65.40
15554;DHT22;7878;44.632;10.942;2023-01-29T17:06:35;9.20;65.30
15554;DHT22;7878;44.632;10.942;2023-01-29T17:09:01;9.20;65.40
15554;DHT22;7878;44.632;10.942;2023-01-29T17:11:45;9.10;65.50
15554;DHT22;7878;44.632;10.942;2023-01-29T17:14:17;9.00;65.90
15554;DHT22;7878;44.632;10.942;2023-01-29T17:17:01;9.00;65.80
15554;DHT22;7878;44.632;10.942;2023-01-29T17:19:27;8.90;66.00
15554;DHT22;7878;44.632;10.942;2023-01-29T17:21:55;8.90;66.40
15554;DHT22;7878;44.632;10.942;2023-01-29T17:24:21;8.80;66.40
15554;DHT22;7878;44.632;10.942;2023-01-29T17:26:47;8.80;66.80
15554;DHT22;7878;44.632;10.942;2023-01-29T17:29:15;8.80;67.40
15554;DHT22;7878;44.632;10.942;2023-01-29T17:31:42;8.80;68.20
15554;DHT22;7878;44.632;10.942;2023-01-29T17:34:12;8.80;68.90
15554;DHT22;7878;44.632;10.942;2023-01-29T17:36:40;8.70;69.20
15554;DHT22;7878;44.632;10.942;2023-01-29T17:39:32;8.70;69.40
15554;DHT22;7878;44.632;10.942;2023-01-29T17:41:58;8.70;69.80
15554;DHT22;7878;44.632;10.942;2023-01-29T17:44:24;8.70;69.20
15554;DHT22;7878;44.632;10.942;2023-01-29T17:46:52;8.70;69.10
15554;DHT22;7878;44.632;10.942;2023-01-29T17:49:28;8.70;69.20
15554;DHT22;7878;44.632;10.942;2023-01-29T17:51:56;8.70;69.50
15554;DHT22;7878;44.632;10.942;2023-01-29T17:54:23;8.60;69.80
15554;DHT22;7878;44.632;10.942;2023-01-29T17:56:50;8.60;70.00
15554;DHT22;7878;44.632;10.942;2023-01-29T17:59:24;8.50;70.20
15554;DHT22;7878;44.632;10.942;2023-01-29T18:01:50;8.40;70.80
15554;DHT22;7878;44.632;10.942;2023-01-29T18:04:17;8.40;71.30
15554;DHT22;7878;44.632;10.942;2023-01-29T18:06:45;8.40;71.40
15554;DHT22;7878;44.632;10.942;2023-01-29T18:09:12;8.30;71.50
15554;DHT22;7878;44.632;10.942;2023-01-29T18:11:38;8.30;71.80
15554;DHT22;7878;44.632;10.942;2023-01-29T18:14:04;8.30;71.70
15554;DHT22;7878;44.632;10.942;2023-01-29T18:16:30;8.30;71.80
15554;DHT22;7878;44.632;10.942;2023-01-29T18:19:02;8.30;71.90
15554;DHT22;7878;44.632;10.942;2023-01-29T18:21:28;8.30;71.80
15554;DHT22;7878;44.632;10.942;2023-01-29T18:23:54;8.30;71.70
15554;DHT22;7878;44.632;10.942;2023-01-29T18:26:19;8.20;71.70